sensor_id;sensor_type;location;lat;lon;timestamp;P1;durP1;ratioP1;P2;durP2;ratioP2
64210;SDS011;50528;48.514;14.394;2023-03-01T00:00:32;26.00;;;17.60;;
64210;SDS011;50528;48.514;14.394;2023-03-01T00:01:26;22.20;;;16.00;;
64210;SDS011;50528;48.514;14.394;2023-03-01T00:02:01;23.10;;;17.20;;
64210;SDS011;50528;48.514;14.394;2023-03-01T00:02:35;27.90;;;18.90;;
64210;SDS011;50528;48.514;14.394;2023-03-01T00:03:10;25.20;;;18.30;;
64210;SDS011;50528;48.514;14.394;2023-03-01T00:03:49;26.10;;;17.40;;
64210;SDS011;50528;48.514;14.394;2023-03-01T00:04:23;25.00;;;18.00;;
64210;SDS011;50528;48.514;14.394;2023-03-01T00:04:56;24.90;;;17.80;;
64210;SDS011;50528;48.514;14.394;2023-03-01T00:05:30;25.90;;;17.80;;
64210;SDS011;50528;48.514;14.394;2023-03-01T00:06:06;23.80;;;17.20;;
64210;SDS011;50528;48.514;14.394;2023-03-01T00:06:41;26.50;;;17.40;;
64210;SDS011;50528;48.514;14.394;2023-03-01T00:07:21;29.30;;;18.60;;
64210;SDS011;50528;48.514;14.394;2023-03-01T00:07:55;27.10;;;18.40;;
64210;SDS011;50528;48.514;14.394;2023-03-01T00:08:30;25.30;;;17.00;;
64210;SDS011;50528;48.514;14.394;2023-03-01T00:09:06;26.80;;;18.70;;
64210;SDS011;50528;48.514;14.394;2023-03-01T00:09:40;27.80;;;18.50;;
64210;SDS011;50528;48.514;14.394;2023-03-01T00:10:16;27.80;;;18.80;;
64210;SDS011;50528;48.514;14.394;2023-03-01T00:11:07;28.90;;;18.60;;
64210;SDS011;50528;48.514;14.394;2023-03-01T00:11:45;25.30;;;17.10;;
64210;SDS011;50528;48.514;14.394;2023-03-01T00:12:19;26.60;;;18.40;;
64210;SDS011;50528;48.514;14.394;2023-03-01T00:12:53;25.50;;;18.20;;
64210;SDS011;50528;48.514;14.394;2023-03-01T00:13:26;24.40;;;17.00;;
64210;SDS011;50528;48.514;14.394;2023-03-01T00:14:01;27.20;;;18.50;;
64210;SDS011;50528;48.514;14.394;2023-03-01T00:14:38;25.40;;;17.90;;
64210;SDS011;50528;48.514;14.394;2023-03-01T00:15:11;27.40;;;19.30;;
64210;SDS011;50528;48.514;14.394;2023-03-01T00:15:45;31.50;;;18.00;;
64210;SDS011;50528;48.514;14.394;2023-03-01T00:16:20;26.40;;;18.10;;
64210;SDS011;50528;48.514;14.394;2023-03-01T00:17:34;23.80;;;16.20;;
64210;SDS011;50528;48.514;14.394;2023-03-01T00:18:10;24.80;;;17.00;;
64210;SDS011;50528;48.514;14.394;2023-03-01T00:18:44;25.50;;;18.50;;
64210;SDS011;50528;48.514;14.394;2023-03-01T00:19:18;26.30;;;18.10;;
64210;SDS011;50528;48.514;14.394;2023-03-01T00:19:53;25.20;;;18.00;;
64210;SDS011;50528;48.514;14.394;2023-03-01T00:20:26;26.80;;;19.20;;
64210;SDS011;50528;48.514;14.394;2023-03-01T00:21:00;27.90;;;18.80;;
64210;SDS011;50528;48.514;14.394;2023-03-01T00:21:34;26.90;;;19.30;;
64210;SDS011;50528;48.514;14.394;2023-03-01T00:22:08;24.40;;;18.70;;
64210;SDS011;50528;48.514;14.394;2023-03-01T00:22:41;26.10;;;19.20;;
64210;SDS011;50528;48.514;14.394;2023-03-01T00:23:18;24.90;;;17.20;;
64210;SDS011;50528;48.514;14.394;2023-03-01T00:23:53;26.90;;;18.70;;
64210;SDS011;50528;48.514;14.394;2023-03-01T00:24:30;26.70;;;18.90;;
64210;SDS011;50528;48.514;14.394;2023-03-01T00:25:04;26.70;;;18.50;;
64210;SDS011;50528;48.514;14.394;2023-03-01T00:25:41;27.90;;;19.20;;
64210;SDS011;50528;48.514;14.394;2023-03-01T00:26:17;27.70;;;18.50;;
64210;SDS011;50528;48.514;14.394;2023-03-01T00:26:54;27.40;;;19.20;;
64210;SDS011;50528;48.514;14.394;2023-03-01T00:27:29;28.60;;;19.20;;
64210;SDS011;50528;48.514;14.394;2023-03-01T00:28:05;28.30;;;19.30;;
64210;SDS011;50528;48.514;14.394;2023-03-01T00:28:40;26.50;;;18.70;;
64210;SDS011;50528;48.514;14.394;2023-03-01T00:29:16;30.30;;;18.20;;
64210;SDS011;50528;48.514;14.394;2023-03-01T00:29:49;26.50;;;20.00;;
64210;SDS011;50528;48.514;14.394;2023-03-01T00:30:23;27.80;;;20.00;;
64210;SDS011;50528;48.514;14.394;2023-03-01T00:31:08;26.40;;;19.30;;
64210;SDS011;50528;48.514;14.394;2023-03-01T00:31:44;29.50;;;19.00;;
64210;SDS011;50528;48.514;14.394;2023-03-01T00:32:20;26.80;;;18.50;;
64210;SDS011;50528;48.514;14.394;2023-03-01T00:32:54;25.50;;;17.60;;
64210;SDS011;50528;48.514;14.394;2023-03-01T00:33:28;28.00;;;19.10;;
64210;SDS011;50528;48.514;14.394;2023-03-01T00:34:03;28.70;;;19.40;;
64210;SDS011;50528;48.514;14.394;2023-03-01T00:34:38;26.60;;;18.90;;
64210;SDS011;50528;48.514;14.394;2023-03-01T00:35:11;29.30;;;20.10;;
64210;SDS011;50528;48.514;14.394;2023-03-01T00:35:45;27.80;;;18.70;;
64210;SDS011;50528;48.514;14.394;2023-03-01T00:36:19;25.70;;;17.20;;
64210;SDS011;50528;48.514;14.394;2023-03-01T00:36:53;27.50;;;18.10;;
64210;SDS011;50528;48.514;14.394;2023-03-01T00:37:27;26.30;;;18.80;;
64210;SDS011;50528;48.514;14.394;2023-03-01T00:38:01;28.40;;;19.60;;
64210;SDS011;50528;48.514;14.394;2023-03-01T00:38:37;27.80;;;18.70;;
64210;SDS011;50528;48.514;14.394;2023-03-01T00:39:13;28.40;;;20.20;;
64210;SDS011;50528;48.514;14.394;2023-03-01T00:39:48;28.70;;;19.60;;
64210;SDS011;50528;48.514;14.394;2023-03-01T00:40:24;27.30;;;19.10;;
64210;SDS011;50528;48.514;14.394;2023-03-01T00:41:09;28.40;;;19.00;;
64210;SDS011;50528;48.514;14.394;2023-03-01T00:41:46;28.90;;;19.40;;
64210;SDS011;50528;48.514;14.394;2023-03-01T00:42:26;29.20;;;19.80;;
64210;SDS011;50528;48.514;14.394;2023-03-01T00:43:00;28.60;;;19.20;;
64210;SDS011;50528;48.514;14.394;2023-03-01T00:43:35;30.00;;;20.20;;
64210;SDS011;50528;48.514;14.394;2023-03-01T00:44:10;29.50;;;20.40;;
64210;SDS011;50528;48.514;14.394;2023-03-01T00:44:44;28.90;;;20.30;;
64210;SDS011;50528;48.514;14.394;2023-03-01T00:45:18;28.40;;;19.80;;
64210;SDS011;50528;48.514;14.394;2023-03-01T00:45:52;29.70;;;20.40;;
64210;SDS011;50528;48.514;14.394;2023-03-01T00:46:26;28.50;;;19.70;;
64210;SDS011;50528;48.514;14.394;2023-03-01T00:47:01;31.00;;;20.30;;
64210;SDS011;50528;48.514;14.394;2023-03-01T00:47:34;29.40;;;20.30;;
64210;SDS011;50528;48.514;14.394;2023-03-01T00:48:08;27.90;;;19.80;;
64210;SDS011;50528;48.514;14.394;2023-03-01T00:48:42;29.20;;;19.90;;
64210;SDS011;50528;48.514;14.394;2023-03-01T00:49:16;28.40;;;20.00;;
64210;SDS011;50528;48.514;14.394;2023-03-01T00:49:49;28.70;;;19.50;;
64210;SDS011;50528;48.514;14.394;2023-03-01T00:50:23;29.00;;;20.00;;
64210;SDS011;50528;48.514;14.394;2023-03-01T00:51:03;27.40;;;19.50;;
64210;SDS011;50528;48.514;14.394;2023-03-01T00:51:40;29.10;;;20.10;;
64210;SDS011;50528;48.514;14.394;2023-03-01T00:52:16;28.40;;;19.20;;
64210;SDS011;50528;48.514;14.394;2023-03-01T00:52:53;28.60;;;18.50;;
64210;SDS011;50528;48.514;14.394;2023-03-01T00:53:27;27.60;;;18.60;;
64210;SDS011;50528;48.514;14.394;2023-03-01T00:54:01;26.90;;;18.20;;
64210;SDS011;50528;48.514;14.394;2023-03-01T00:54:36;30.90;;;20.50;;
64210;SDS011;50528;48.514;14.394;2023-03-01T00:55:09;28.50;;;20.00;;
64210;SDS011;50528;48.514;14.394;2023-03-01T00:55:47;26.80;;;18.80;;
64210;SDS011;50528;48.514;14.394;2023-03-01T00:56:22;29.50;;;19.60;;
64210;SDS011;50528;48.514;14.394;2023-03-01T00:57:01;30.90;;;19.60;;
64210;SDS011;50528;48.514;14.394;2023-03-01T00:57:35;28.70;;;20.10;;
64210;SDS011;50528;48.514;14.394;2023-03-01T00:58:08;32.20;;;20.50;;
64210;SDS011;50528;48.514;14.394;2023-03-01T00:58:43;28.20;;;20.30;;
64210;SDS011;50528;48.514;14.394;2023-03-01T00:59:19;27.80;;;18.40;;
64210;SDS011;50528;48.514;14.394;2023-03-01T00:59:53;30.90;;;20.50;;
64210;SDS011;50528;48.514;14.394;2023-03-01T01:00:27;28.40;;;19.20;;
64210;SDS011;50528;48.514;14.394;2023-03-01T01:01:06;29.30;;;19.90;;
64210;SDS011;50528;48.514;14.394;2023-03-01T01:01:50;27.60;;;19.40;;
64210;SDS011;50528;48.514;14.394;2023-03-01T01:02:23;29.20;;;19.90;;
64210;SDS011;50528;48.514;14.394;2023-03-01T01:02:57;26.70;;;19.90;;
64210;SDS011;50528;48.514;14.394;2023-03-01T01:03:30;29.30;;;20.90;;
64210;SDS011;50528;48.514;14.394;2023-03-01T01:04:05;29.10;;;20.30;;
64210;SDS011;50528;48.514;14.394;2023-03-01T01:04:42;28.80;;;20.00;;
64210;SDS011;50528;48.514;14.394;2023-03-01T01:05:16;27.70;;;19.80;;
64210;SDS011;50528;48.514;14.394;2023-03-01T01:05:53;27.70;;;19.30;;
64210;SDS011;50528;48.514;14.394;2023-03-01T01:06:35;27.80;;;19.50;;
64210;SDS011;50528;48.514;14.394;2023-03-01T01:07:13;31.00;;;19.80;;
64210;SDS011;50528;48.514;14.394;2023-03-01T01:07:47;29.10;;;20.30;;
64210;SDS011;50528;48.514;14.394;2023-03-01T01:08:21;30.30;;;21.10;;
64210;SDS011;50528;48.514;14.394;2023-03-01T01:08:55;26.70;;;17.50;;
64210;SDS011;50528;48.514;14.394;2023-03-01T01:09:32;28.20;;;19.20;;
64210;SDS011;50528;48.514;14.394;2023-03-01T01:10:06;29.60;;;20.50;;
64210;SDS011;50528;48.514;14.394;2023-03-01T01:10:43;27.90;;;19.70;;
64210;SDS011;50528;48.514;14.394;2023-03-01T01:11:21;29.50;;;20.50;;
64210;SDS011;50528;48.514;14.394;2023-03-01T01:11:55;29.80;;;19.50;;
64210;SDS011;50528;48.514;14.394;2023-03-01T01:12:32;30.70;;;19.50;;
64210;SDS011;50528;48.514;14.394;2023-03-01T01:13:08;29.20;;;20.30;;
64210;SDS011;50528;48.514;14.394;2023-03-01T01:13:48;30.00;;;19.20;;
64210;SDS011;50528;48.514;14.394;2023-03-01T01:14:22;29.20;;;20.30;;
64210;SDS011;50528;48.514;14.394;2023-03-01T01:14:56;32.20;;;21.30;;
64210;SDS011;50528;48.514;14.394;2023-03-01T01:15:33;33.10;;;20.80;;
64210;SDS011;50528;48.514;14.394;2023-03-01T01:16:08;29.40;;;20.30;;
64210;SDS011;50528;48.514;14.394;2023-03-01T01:16:42;30.90;;;21.60;;
64210;SDS011;50528;48.514;14.394;2023-03-01T01:17:15;32.40;;;21.20;;
64210;SDS011;50528;48.514;14.394;2023-03-01T01:17:49;30.30;;;21.40;;
64210;SDS011;50528;48.514;14.394;2023-03-01T01:18:22;33.90;;;21.70;;
64210;SDS011;50528;48.514;14.394;2023-03-01T01:18:58;32.30;;;21.00;;
64210;SDS011;50528;48.514;14.394;2023-03-01T01:19:33;30.40;;;21.60;;
64210;SDS011;50528;48.514;14.394;2023-03-01T01:20:07;31.10;;;21.10;;
64210;SDS011;50528;48.514;14.394;2023-03-01T01:20:44;30.20;;;20.40;;
64210;SDS011;50528;48.514;14.394;2023-03-01T01:21:22;28.40;;;20.80;;
64210;SDS011;50528;48.514;14.394;2023-03-01T01:22:12;30.20;;;21.00;;
64210;SDS011;50528;48.514;14.394;2023-03-01T01:22:49;30.90;;;20.60;;
64210;SDS011;50528;48.514;14.394;2023-03-01T01:23:22;30.30;;;20.00;;
64210;SDS011;50528;48.514;14.394;2023-03-01T01:23:59;29.20;;;19.00;;
64210;SDS011;50528;48.514;14.394;2023-03-01T01:24:33;30.00;;;20.20;;
64210;SDS011;50528;48.514;14.394;2023-03-01T01:25:07;29.70;;;21.10;;
64210;SDS011;50528;48.514;14.394;2023-03-01T01:25:41;30.50;;;20.30;;
64210;SDS011;50528;48.514;14.394;2023-03-01T01:26:29;29.30;;;20.20;;
64210;SDS011;50528;48.514;14.394;2023-03-01T01:27:05;29.30;;;20.20;;
64210;SDS011;50528;48.514;14.394;2023-03-01T01:27:45;27.30;;;19.40;;
64210;SDS011;50528;48.514;14.394;2023-03-01T01:28:21;30.30;;;20.90;;
64210;SDS011;50528;48.514;14.394;2023-03-01T01:28:55;30.60;;;20.90;;
64210;SDS011;50528;48.514;14.394;2023-03-01T01:29:29;31.00;;;21.20;;
64210;SDS011;50528;48.514;14.394;2023-03-01T01:30:02;29.80;;;20.80;;
64210;SDS011;50528;48.514;14.394;2023-03-01T01:30:37;29.70;;;20.70;;
64210;SDS011;50528;48.514;14.394;2023-03-01T01:31:10;31.80;;;21.40;;
64210;SDS011;50528;48.514;14.394;2023-03-01T01:31:44;30.40;;;21.30;;
64210;SDS011;50528;48.514;14.394;2023-03-01T01:32:59;29.70;;;19.50;;
64210;SDS011;50528;48.514;14.394;2023-03-01T01:33:32;27.60;;;18.30;;
64210;SDS011;50528;48.514;14.394;2023-03-01T01:34:07;30.80;;;21.10;;
64210;SDS011;50528;48.514;14.394;2023-03-01T01:34:51;31.30;;;20.90;;
64210;SDS011;50528;48.514;14.394;2023-03-01T01:35:24;31.20;;;20.90;;
64210;SDS011;50528;48.514;14.394;2023-03-01T01:36:01;33.80;;;22.20;;
64210;SDS011;50528;48.514;14.394;2023-03-01T01:36:34;30.10;;;21.60;;
64210;SDS011;50528;48.514;14.394;2023-03-01T01:37:09;31.90;;;21.60;;
64210;SDS011;50528;48.514;14.394;2023-03-01T01:37:43;31.60;;;21.50;;
64210;SDS011;50528;48.514;14.394;2023-03-01T01:38:16;35.20;;;23.10;;
64210;SDS011;50528;48.514;14.394;2023-03-01T01:38:50;32.70;;;22.60;;
64210;SDS011;50528;48.514;14.394;2023-03-01T01:39:24;30.00;;;20.90;;
64210;SDS011;50528;48.514;14.394;2023-03-01T01:40:00;33.00;;;22.90;;
64210;SDS011;50528;48.514;14.394;2023-03-01T01:40:42;31.80;;;21.10;;
64210;SDS011;50528;48.514;14.394;2023-03-01T01:41:17;33.60;;;21.60;;
64210;SDS011;50528;48.514;14.394;2023-03-01T01:41:55;32.80;;;22.40;;
64210;SDS011;50528;48.514;14.394;2023-03-01T01:42:28;31.90;;;21.70;;
64210;SDS011;50528;48.514;14.394;2023-03-01T01:43:02;33.10;;;22.30;;
64210;SDS011;50528;48.514;14.394;2023-03-01T01:43:37;32.70;;;22.10;;
64210;SDS011;50528;48.514;14.394;2023-03-01T01:44:15;33.10;;;21.90;;
64210;SDS011;50528;48.514;14.394;2023-03-01T01:45:15;33.00;;;23.00;;
64210;SDS011;50528;48.514;14.394;2023-03-01T01:47:40;28.60;;;19.30;;
64210;SDS011;50528;48.514;14.394;2023-03-01T01:48:16;33.50;;;21.70;;
64210;SDS011;50528;48.514;14.394;2023-03-01T01:48:58;34.40;;;21.40;;
64210;SDS011;50528;48.514;14.394;2023-03-01T01:49:43;32.50;;;20.10;;
64210;SDS011;50528;48.514;14.394;2023-03-01T01:50:20;30.70;;;20.60;;
64210;SDS011;50528;48.514;14.394;2023-03-01T01:50:59;34.10;;;21.60;;
64210;SDS011;50528;48.514;14.394;2023-03-01T01:51:36;33.10;;;22.00;;
64210;SDS011;50528;48.514;14.394;2023-03-01T01:52:22;30.60;;;20.80;;
64210;SDS011;50528;48.514;14.394;2023-03-01T01:52:58;28.60;;;19.10;;
64210;SDS011;50528;48.514;14.394;2023-03-01T01:53:32;34.90;;;22.20;;
64210;SDS011;50528;48.514;14.394;2023-03-01T01:54:07;32.40;;;22.60;;
64210;SDS011;50528;48.514;14.394;2023-03-01T01:54:58;32.90;;;21.60;;
64210;SDS011;50528;48.514;14.394;2023-03-01T01:55:33;33.00;;;21.30;;
64210;SDS011;50528;48.514;14.394;2023-03-01T01:56:13;33.20;;;21.50;;
64210;SDS011;50528;48.514;14.394;2023-03-01T01:56:53;31.80;;;19.20;;
64210;SDS011;50528;48.514;14.394;2023-03-01T01:58:10;32.00;;;20.30;;
64210;SDS011;50528;48.514;14.394;2023-03-01T01:58:46;30.60;;;21.00;;
64210;SDS011;50528;48.514;14.394;2023-03-01T01:59:21;31.60;;;21.00;;
64210;SDS011;50528;48.514;14.394;2023-03-01T01:59:58;33.70;;;22.70;;
64210;SDS011;50528;48.514;14.394;2023-03-01T02:00:45;31.80;;;21.60;;
64210;SDS011;50528;48.514;14.394;2023-03-01T02:01:19;34.10;;;22.60;;
64210;SDS011;50528;48.514;14.394;2023-03-01T02:01:55;30.60;;;20.80;;
64210;SDS011;50528;48.514;14.394;2023-03-01T02:02:32;32.20;;;22.50;;
64210;SDS011;50528;48.514;14.394;2023-03-01T02:03:10;32.80;;;22.10;;
64210;SDS011;50528;48.514;14.394;2023-03-01T02:03:46;34.90;;;23.50;;
64210;SDS011;50528;48.514;14.394;2023-03-01T02:04:22;36.60;;;23.60;;
64210;SDS011;50528;48.514;14.394;2023-03-01T02:05:06;32.30;;;22.40;;
64210;SDS011;50528;48.514;14.394;2023-03-01T02:06:41;32.00;;;20.70;;
64210;SDS011;50528;48.514;14.394;2023-03-01T02:07:24;33.10;;;21.70;;
64210;SDS011;50528;48.514;14.394;2023-03-01T02:08:01;34.00;;;22.20;;
64210;SDS011;50528;48.514;14.394;2023-03-01T02:08:35;32.40;;;21.70;;
64210;SDS011;50528;48.514;14.394;2023-03-01T02:09:12;34.40;;;23.30;;
64210;SDS011;50528;48.514;14.394;2023-03-01T02:09:49;37.50;;;23.60;;
64210;SDS011;50528;48.514;14.394;2023-03-01T02:10:25;36.20;;;23.40;;
64210;SDS011;50528;48.514;14.394;2023-03-01T02:11:01;31.60;;;21.40;;
64210;SDS011;50528;48.514;14.394;2023-03-01T02:11:37;31.60;;;21.30;;
64210;SDS011;50528;48.514;14.394;2023-03-01T02:12:25;35.70;;;22.60;;
64210;SDS011;50528;48.514;14.394;2023-03-01T02:13:00;33.00;;;22.50;;
64210;SDS011;50528;48.514;14.394;2023-03-01T02:13:35;30.70;;;21.20;;
64210;SDS011;50528;48.514;14.394;2023-03-01T02:14:10;35.00;;;22.70;;
64210;SDS011;50528;48.514;14.394;2023-03-01T02:14:48;32.50;;;22.00;;
64210;SDS011;50528;48.514;14.394;2023-03-01T02:15:22;32.50;;;21.00;;
64210;SDS011;50528;48.514;14.394;2023-03-01T02:16:12;36.80;;;21.80;;
64210;SDS011;50528;48.514;14.394;2023-03-01T02:16:47;34.80;;;22.40;;
64210;SDS011;50528;48.514;14.394;2023-03-01T02:17:22;32.50;;;22.30;;
64210;SDS011;50528;48.514;14.394;2023-03-01T02:17:58;31.40;;;21.50;;
64210;SDS011;50528;48.514;14.394;2023-03-01T02:18:32;35.80;;;24.10;;
64210;SDS011;50528;48.514;14.394;2023-03-01T02:19:06;34.50;;;23.90;;
64210;SDS011;50528;48.514;14.394;2023-03-01T02:19:55;34.30;;;23.30;;
64210;SDS011;50528;48.514;14.394;2023-03-01T02:22:53;35.30;;;22.90;;
64210;SDS011;50528;48.514;14.394;2023-03-01T02:23:28;35.40;;;23.40;;
64210;SDS011;50528;48.514;14.394;2023-03-01T02:24:36;35.90;;;24.40;;
64210;SDS011;50528;48.514;14.394;2023-03-01T02:25:30;33.30;;;20.80;;
64210;SDS011;50528;48.514;14.394;2023-03-01T02:26:09;33.70;;;22.20;;
64210;SDS011;50528;48.514;14.394;2023-03-01T02:26:54;35.40;;;22.50;;
64210;SDS011;50528;48.514;14.394;2023-03-01T02:27:34;33.50;;;21.50;;
64210;SDS011;50528;48.514;14.394;2023-03-01T02:28:48;38.40;;;24.70;;
64210;SDS011;50528;48.514;14.394;2023-03-01T02:29:27;38.60;;;24.00;;
64210;SDS011;50528;48.514;14.394;2023-03-01T02:30:04;39.00;;;24.80;;
64210;SDS011;50528;48.514;14.394;2023-03-01T02:30:39;36.10;;;24.70;;
64210;SDS011;50528;48.514;14.394;2023-03-01T02:31:34;33.00;;;21.40;;
64210;SDS011;50528;48.514;14.394;2023-03-01T02:32:18;37.00;;;24.60;;
64210;SDS011;50528;48.514;14.394;2023-03-01T02:33:03;36.90;;;23.10;;
64210;SDS011;50528;48.514;14.394;2023-03-01T02:33:37;32.60;;;22.00;;
64210;SDS011;50528;48.514;14.394;2023-03-01T02:34:14;33.10;;;22.80;;
64210;SDS011;50528;48.514;14.394;2023-03-01T02:34:54;37.40;;;24.40;;
64210;SDS011;50528;48.514;14.394;2023-03-01T02:35:30;35.00;;;23.10;;
64210;SDS011;50528;48.514;14.394;2023-03-01T02:36:08;35.10;;;23.60;;
64210;SDS011;50528;48.514;14.394;2023-03-01T02:37:09;36.30;;;24.80;;
64210;SDS011;50528;48.514;14.394;2023-03-01T02:37:50;35.60;;;22.00;;
64210;SDS011;50528;48.514;14.394;2023-03-01T02:38:23;31.40;;;21.90;;
64210;SDS011;50528;48.514;14.394;2023-03-01T02:38:58;37.40;;;23.40;;
64210;SDS011;50528;48.514;14.394;2023-03-01T02:39:39;40.20;;;24.40;;
64210;SDS011;50528;48.514;14.394;2023-03-01T02:40:17;35.60;;;24.20;;
64210;SDS011;50528;48.514;14.394;2023-03-01T02:40:54;36.00;;;23.60;;
64210;SDS011;50528;48.514;14.394;2023-03-01T02:41:36;34.40;;;23.40;;
64210;SDS011;50528;48.514;14.394;2023-03-01T02:42:13;36.50;;;24.50;;
64210;SDS011;50528;48.514;14.394;2023-03-01T02:42:54;35.80;;;23.80;;
64210;SDS011;50528;48.514;14.394;2023-03-01T02:43:31;35.00;;;24.40;;
64210;SDS011;50528;48.514;14.394;2023-03-01T02:44:06;34.90;;;23.30;;
64210;SDS011;50528;48.514;14.394;2023-03-01T02:44:41;36.10;;;24.80;;
64210;SDS011;50528;48.514;14.394;2023-03-01T02:45:17;37.40;;;25.30;;
64210;SDS011;50528;48.514;14.394;2023-03-01T02:45:52;39.40;;;25.50;;
64210;SDS011;50528;48.514;14.394;2023-03-01T02:46:30;37.80;;;24.80;;
64210;SDS011;50528;48.514;14.394;2023-03-01T02:47:04;37.60;;;24.40;;
64210;SDS011;50528;48.514;14.394;2023-03-01T02:47:39;35.50;;;25.00;;
64210;SDS011;50528;48.514;14.394;2023-03-01T02:48:12;35.50;;;21.90;;
64210;SDS011;50528;48.514;14.394;2023-03-01T02:48:47;37.00;;;24.60;;
64210;SDS011;50528;48.514;14.394;2023-03-01T02:52:51;36.00;;;22.00;;
64210;SDS011;50528;48.514;14.394;2023-03-01T02:54:43;35.30;;;21.10;;
64210;SDS011;50528;48.514;14.394;2023-03-01T02:55:23;36.90;;;22.60;;
64210;SDS011;50528;48.514;14.394;2023-03-01T02:55:57;37.00;;;22.70;;
64210;SDS011;50528;48.514;14.394;2023-03-01T02:56:34;36.30;;;22.90;;
64210;SDS011;50528;48.514;14.394;2023-03-01T02:57:17;37.80;;;23.50;;
64210;SDS011;50528;48.514;14.394;2023-03-01T02:57:52;39.00;;;24.90;;
64210;SDS011;50528;48.514;14.394;2023-03-01T02:58:29;41.10;;;26.00;;
64210;SDS011;50528;48.514;14.394;2023-03-01T02:59:02;35.60;;;23.40;;
64210;SDS011;50528;48.514;14.394;2023-03-01T02:59:37;36.10;;;24.50;;
64210;SDS011;50528;48.514;14.394;2023-03-01T03:00:14;38.70;;;25.50;;
64210;SDS011;50528;48.514;14.394;2023-03-01T03:00:54;39.00;;;25.60;;
64210;SDS011;50528;48.514;14.394;2023-03-01T03:01:29;36.70;;;23.70;;
64210;SDS011;50528;48.514;14.394;2023-03-01T03:02:22;35.60;;;23.80;;
64210;SDS011;50528;48.514;14.394;2023-03-01T03:03:20;38.00;;;22.40;;
64210;SDS011;50528;48.514;14.394;2023-03-01T03:03:55;35.70;;;22.90;;
64210;SDS011;50528;48.514;14.394;2023-03-01T03:04:28;37.70;;;23.80;;
64210;SDS011;50528;48.514;14.394;2023-03-01T03:05:06;40.70;;;26.10;;
64210;SDS011;50528;48.514;14.394;2023-03-01T03:05:59;37.20;;;23.60;;
64210;SDS011;50528;48.514;14.394;2023-03-01T03:06:33;33.60;;;21.80;;
64210;SDS011;50528;48.514;14.394;2023-03-01T03:07:07;38.10;;;25.20;;
64210;SDS011;50528;48.514;14.394;2023-03-01T03:07:41;38.40;;;24.90;;
64210;SDS011;50528;48.514;14.394;2023-03-01T03:08:17;37.50;;;24.50;;
64210;SDS011;50528;48.514;14.394;2023-03-01T03:08:57;37.70;;;24.80;;
64210;SDS011;50528;48.514;14.394;2023-03-01T03:09:31;40.40;;;26.20;;
64210;SDS011;50528;48.514;14.394;2023-03-01T03:10:06;42.80;;;26.60;;
64210;SDS011;50528;48.514;14.394;2023-03-01T03:10:47;38.40;;;24.70;;
64210;SDS011;50528;48.514;14.394;2023-03-01T03:11:20;39.80;;;24.80;;
64210;SDS011;50528;48.514;14.394;2023-03-01T03:11:54;41.40;;;26.00;;
64210;SDS011;50528;48.514;14.394;2023-03-01T03:12:28;39.40;;;25.00;;
64210;SDS011;50528;48.514;14.394;2023-03-01T03:13:02;39.40;;;25.80;;
64210;SDS011;50528;48.514;14.394;2023-03-01T03:13:38;41.10;;;26.10;;
64210;SDS011;50528;48.514;14.394;2023-03-01T03:14:21;39.70;;;25.30;;
64210;SDS011;50528;48.514;14.394;2023-03-01T03:14:55;40.20;;;26.80;;
64210;SDS011;50528;48.514;14.394;2023-03-01T03:15:28;38.90;;;26.20;;
64210;SDS011;50528;48.514;14.394;2023-03-01T03:16:03;41.50;;;27.90;;
64210;SDS011;50528;48.514;14.394;2023-03-01T03:16:37;40.00;;;27.10;;
64210;SDS011;50528;48.514;14.394;2023-03-01T03:17:10;41.50;;;27.20;;
64210;SDS011;50528;48.514;14.394;2023-03-01T03:17:47;39.50;;;26.70;;
64210;SDS011;50528;48.514;14.394;2023-03-01T03:18:21;38.50;;;26.40;;
64210;SDS011;50528;48.514;14.394;2023-03-01T03:18:58;42.30;;;26.80;;
64210;SDS011;50528;48.514;14.394;2023-03-01T03:19:38;41.30;;;25.20;;
64210;SDS011;50528;48.514;14.394;2023-03-01T03:20:12;38.70;;;25.20;;
64210;SDS011;50528;48.514;14.394;2023-03-01T03:20:52;41.80;;;26.40;;
64210;SDS011;50528;48.514;14.394;2023-03-01T03:21:26;43.90;;;27.40;;
64210;SDS011;50528;48.514;14.394;2023-03-01T03:22:04;38.70;;;25.70;;
64210;SDS011;50528;48.514;14.394;2023-03-01T03:22:41;39.10;;;25.20;;
64210;SDS011;50528;48.514;14.394;2023-03-01T03:23:16;42.20;;;27.00;;
64210;SDS011;50528;48.514;14.394;2023-03-01T03:23:50;39.50;;;26.20;;
64210;SDS011;50528;48.514;14.394;2023-03-01T03:24:24;43.60;;;27.20;;
64210;SDS011;50528;48.514;14.394;2023-03-01T03:24:58;40.80;;;26.30;;
64210;SDS011;50528;48.514;14.394;2023-03-01T03:25:31;41.90;;;26.70;;
64210;SDS011;50528;48.514;14.394;2023-03-01T03:26:10;43.80;;;26.40;;
64210;SDS011;50528;48.514;14.394;2023-03-01T03:26:46;40.60;;;25.70;;
64210;SDS011;50528;48.514;14.394;2023-03-01T03:27:20;41.10;;;25.90;;
64210;SDS011;50528;48.514;14.394;2023-03-01T03:28:01;39.20;;;25.60;;
64210;SDS011;50528;48.514;14.394;2023-03-01T03:28:42;35.80;;;24.90;;
64210;SDS011;50528;48.514;14.394;2023-03-01T03:29:16;39.30;;;26.40;;
64210;SDS011;50528;48.514;14.394;2023-03-01T03:29:53;38.70;;;25.80;;
64210;SDS011;50528;48.514;14.394;2023-03-01T03:30:28;39.70;;;26.30;;
64210;SDS011;50528;48.514;14.394;2023-03-01T03:31:02;41.40;;;26.30;;
64210;SDS011;50528;48.514;14.394;2023-03-01T03:31:39;38.40;;;25.30;;
64210;SDS011;50528;48.514;14.394;2023-03-01T03:32:13;40.80;;;27.00;;
64210;SDS011;50528;48.514;14.394;2023-03-01T03:32:47;42.70;;;26.90;;
64210;SDS011;50528;48.514;14.394;2023-03-01T03:33:25;42.30;;;26.40;;
64210;SDS011;50528;48.514;14.394;2023-03-01T03:33:58;39.80;;;27.40;;
64210;SDS011;50528;48.514;14.394;2023-03-01T03:34:32;40.60;;;27.20;;
64210;SDS011;50528;48.514;14.394;2023-03-01T03:35:07;38.00;;;25.90;;
64210;SDS011;50528;48.514;14.394;2023-03-01T03:35:45;38.90;;;26.50;;
64210;SDS011;50528;48.514;14.394;2023-03-01T03:36:24;36.90;;;24.10;;
64210;SDS011;50528;48.514;14.394;2023-03-01T03:36:59;43.40;;;25.70;;
64210;SDS011;50528;48.514;14.394;2023-03-01T03:37:33;40.60;;;25.60;;
64210;SDS011;50528;48.514;14.394;2023-03-01T03:38:26;39.30;;;24.80;;
64210;SDS011;50528;48.514;14.394;2023-03-01T03:39:02;38.50;;;24.40;;
64210;SDS011;50528;48.514;14.394;2023-03-01T03:39:36;38.20;;;24.60;;
64210;SDS011;50528;48.514;14.394;2023-03-01T03:40:10;41.30;;;26.90;;
64210;SDS011;50528;48.514;14.394;2023-03-01T03:40:51;41.80;;;26.00;;
64210;SDS011;50528;48.514;14.394;2023-03-01T03:41:35;42.60;;;25.20;;
64210;SDS011;50528;48.514;14.394;2023-03-01T03:42:09;43.00;;;26.70;;
64210;SDS011;50528;48.514;14.394;2023-03-01T03:42:43;39.80;;;26.60;;
64210;SDS011;50528;48.514;14.394;2023-03-01T03:43:17;38.60;;;26.30;;
64210;SDS011;50528;48.514;14.394;2023-03-01T03:43:57;35.10;;;21.80;;
64210;SDS011;50528;48.514;14.394;2023-03-01T03:44:34;38.90;;;24.40;;
64210;SDS011;50528;48.514;14.394;2023-03-01T03:45:10;43.20;;;26.30;;